createdAt,value
2018-07-25T00:00:15.067Z,21.10
2018-07-25T00:02:42.817Z,21.10
2018-07-25T00:05:10.655Z,21.10
2018-07-25T00:07:38.521Z,21.10
2018-07-25T00:10:08.547Z,21.10
2018-07-25T00:12:36.412Z,21.10
2018-07-25T00:15:04.656Z,21.10
2018-07-25T00:17:32.491Z,21.00
2018-07-25T00:20:00.295Z,21.00
2018-07-25T00:22:28.231Z,21.00
2018-07-25T00:24:56.067Z,21.00
2018-07-25T00:27:23.879Z,21.00
2018-07-25T00:29:51.723Z,21.00
2018-07-25T00:32:19.540Z,21.00
2018-07-25T00:34:47.358Z,21.00
2018-07-25T00:37:15.115Z,21.00
2018-07-25T00:39:42.951Z,20.90
2018-07-25T00:42:10.775Z,20.90
2018-07-25T00:44:38.628Z,20.80
2018-07-25T00:47:06.371Z,20.70
2018-07-25T00:49:34.187Z,20.70
2018-07-25T00:52:01.964Z,20.60
2018-07-25T00:54:29.799Z,20.50
2018-07-25T00:56:57.583Z,20.50
2018-07-25T00:59:25.390Z,20.40
2018-07-25T01:01:53.188Z,20.40
2018-07-25T01:04:21.026Z,20.30
2018-07-25T01:06:48.779Z,20.30
2018-07-25T01:09:16.603Z,20.30
2018-07-25T01:11:44.427Z,20.20
2018-07-25T01:14:12.247Z,20.20
2018-07-25T01:16:40.028Z,20.10
2018-07-25T01:19:07.804Z,20.10
2018-07-25T01:21:35.606Z,20.10
2018-07-25T01:24:03.488Z,20.00
2018-07-25T01:26:31.291Z,20.10
2018-07-25T01:28:59.075Z,20.10
2018-07-25T01:31:26.912Z,20.20
2018-07-25T01:36:22.535Z,20.20
2018-07-25T01:38:50.355Z,20.20
2018-07-25T01:41:18.159Z,20.10
2018-07-25T01:43:45.937Z,20.10
2018-07-25T01:46:13.683Z,20.00
2018-07-25T01:48:41.459Z,19.90
2018-07-25T01:51:09.295Z,19.90
2018-07-25T01:53:37.093Z,19.80
2018-07-25T01:56:05.296Z,19.70
2018-07-25T01:58:33.108Z,19.70
2018-07-25T02:01:00.887Z,19.70
2018-07-25T02:03:28.683Z,19.70
2018-07-25T02:05:56.458Z,19.60
2018-07-25T02:08:24.263Z,19.60
2018-07-25T02:10:52.071Z,19.60
2018-07-25T02:13:19.863Z,19.50
2018-07-25T02:15:47.695Z,19.50
2018-07-25T02:18:15.511Z,19.40
2018-07-25T02:20:43.376Z,19.40
2018-07-25T02:23:11.162Z,19.30
2018-07-25T02:25:38.953Z,19.30
2018-07-25T02:28:06.763Z,19.30
2018-07-25T02:30:34.536Z,19.30
2018-07-25T02:33:02.369Z,19.30
2018-07-25T02:37:57.995Z,19.30
2018-07-25T02:40:25.807Z,19.30
2018-07-25T02:42:53.892Z,19.30
2018-07-25T02:45:21.647Z,19.20
2018-07-25T02:47:49.455Z,19.20
2018-07-25T02:50:17.227Z,19.20
2018-07-25T02:52:45.024Z,19.10
2018-07-25T02:55:12.732Z,19.10
2018-07-25T02:57:40.506Z,19.10
2018-07-25T03:00:08.460Z,19.00
2018-07-25T03:02:36.263Z,18.90
2018-07-25T03:05:04.244Z,18.90
2018-07-25T03:07:32.187Z,18.80
2018-07-25T03:10:00.004Z,18.70
2018-07-25T03:12:27.827Z,18.70
2018-07-25T03:14:55.579Z,18.60
2018-07-25T03:17:23.387Z,18.60
2018-07-25T03:19:51.211Z,18.70
2018-07-25T03:22:19.036Z,18.80
2018-07-25T03:24:46.779Z,18.80
2018-07-25T03:27:14.597Z,18.80
2018-07-25T03:29:42.386Z,18.70
2018-07-25T03:32:10.215Z,18.60
2018-07-25T03:34:37.991Z,18.50
2018-07-25T03:37:05.792Z,18.40
2018-07-25T03:39:33.538Z,18.40
2018-07-25T03:42:01.288Z,18.40
2018-07-25T03:44:29.103Z,18.30
2018-07-25T03:46:56.847Z,18.40
2018-07-25T03:49:24.561Z,18.50
2018-07-25T03:51:52.403Z,18.50
2018-07-25T03:54:20.211Z,18.60
2018-07-25T03:56:47.950Z,18.70
2018-07-25T03:59:15.722Z,18.70
2018-07-25T04:01:43.567Z,18.60
2018-07-25T04:04:11.405Z,18.50
2018-07-25T04:06:39.235Z,18.60
2018-07-25T04:09:08.432Z,18.60
2018-07-25T04:11:36.423Z,18.60
2018-07-25T04:14:04.282Z,18.80
2018-07-25T04:16:32.070Z,18.80
2018-07-25T04:18:59.917Z,18.80
2018-07-25T04:21:27.667Z,18.80
2018-07-25T04:23:55.448Z,18.80
2018-07-25T04:26:23.311Z,18.90
2018-07-25T04:28:51.139Z,19.00
2018-07-25T04:31:18.887Z,19.00
2018-07-25T04:33:46.732Z,19.00
2018-07-25T04:36:14.503Z,19.00
2018-07-25T04:38:42.287Z,19.00
2018-07-25T04:41:10.055Z,19.10
2018-07-25T04:43:37.879Z,19.10
2018-07-25T04:46:05.742Z,19.20
2018-07-25T04:48:33.504Z,19.10
2018-07-25T04:51:01.268Z,19.20
2018-07-25T04:53:29.083Z,19.20
2018-07-25T04:55:57.111Z,19.30
2018-07-25T04:58:25.775Z,19.40
2018-07-25T05:00:53.630Z,19.40
2018-07-25T05:03:21.486Z,19.50
2018-07-25T05:05:49.251Z,19.60
2018-07-25T05:08:17.096Z,19.70
2018-07-25T05:13:12.627Z,20.00
2018-07-25T05:15:40.499Z,20.20
2018-07-25T05:18:08.375Z,20.40
2018-07-25T05:20:36.147Z,20.70
2018-07-25T05:25:31.755Z,21.40
2018-07-25T05:27:59.544Z,21.80
2018-07-25T05:30:27.456Z,22.30
2018-07-25T05:32:55.243Z,22.90
2018-07-25T05:35:23.011Z,23.50
2018-07-25T05:37:50.808Z,24.10
2018-07-25T05:40:18.786Z,24.60
2018-07-25T05:42:46.607Z,24.50
2018-07-25T05:45:14.407Z,24.40
2018-07-25T05:47:42.211Z,24.20
2018-07-25T05:50:10.084Z,24.10
2018-07-25T05:52:37.904Z,24.10
2018-07-25T05:55:05.809Z,24.30
2018-07-25T05:57:34.236Z,24.50
2018-07-25T06:00:02.025Z,25.10
2018-07-25T06:02:29.856Z,25.50
2018-07-25T06:04:57.666Z,25.60
2018-07-25T06:07:25.502Z,25.40
2018-07-25T06:09:53.323Z,25.50
2018-07-25T06:12:21.120Z,25.80
2018-07-25T06:14:48.909Z,25.90
2018-07-25T06:17:16.673Z,25.60
2018-07-25T06:19:44.450Z,25.50
2018-07-25T06:22:12.311Z,25.60
2018-07-25T06:24:40.117Z,25.40
2018-07-25T06:27:08.735Z,25.50
2018-07-25T06:29:36.492Z,25.90
2018-07-25T06:32:04.303Z,25.90
2018-07-25T06:34:32.123Z,26.30
2018-07-25T06:36:59.981Z,26.50
2018-07-25T06:39:27.784Z,26.60
2018-07-25T06:41:55.568Z,26.70
2018-07-25T06:44:23.351Z,26.80
2018-07-25T06:46:51.079Z,26.70
2018-07-25T06:49:18.883Z,26.70
2018-07-25T06:51:46.657Z,26.70
2018-07-25T06:54:14.411Z,26.90
2018-07-25T06:56:42.126Z,27.10
2018-07-25T06:59:09.881Z,27.60
2018-07-25T07:01:37.655Z,27.50
2018-07-25T07:04:05.581Z,27.40
2018-07-25T07:06:33.384Z,27.60
2018-07-25T07:09:01.272Z,27.70
2018-07-25T07:11:29.413Z,27.70
2018-07-25T07:13:57.410Z,27.70
2018-07-25T07:16:25.288Z,28.10
2018-07-25T07:18:53.107Z,28.20
2018-07-25T07:21:20.955Z,28.60
2018-07-25T07:23:55.637Z,28.90
2018-07-25T07:26:26.187Z,28.90
2018-07-25T07:28:57.113Z,28.70
2018-07-25T07:31:28.099Z,28.80
2018-07-25T07:33:55.772Z,28.70
2018-07-25T07:36:23.577Z,28.80
2018-07-25T07:38:51.337Z,29.00
2018-07-25T07:41:19.155Z,29.40
2018-07-25T07:43:46.881Z,29.40
2018-07-25T07:46:14.735Z,29.60
2018-07-25T07:48:42.512Z,29.70
2018-07-25T07:51:10.351Z,29.90
2018-07-25T07:53:38.202Z,30.20
2018-07-25T07:56:05.964Z,30.40
2018-07-25T07:58:33.826Z,30.80
2018-07-25T08:01:01.716Z,30.60
2018-07-25T08:03:29.564Z,30.50
2018-07-25T08:05:57.478Z,30.40
2018-07-25T08:08:25.311Z,30.20
2018-07-25T08:10:53.140Z,29.90
2018-07-25T08:13:23.244Z,30.00
2018-07-25T08:15:50.987Z,30.00
2018-07-25T08:18:18.854Z,29.90
2018-07-25T08:20:47.374Z,29.80
2018-07-25T08:23:19.601Z,30.00
2018-07-25T08:25:47.945Z,30.30
2018-07-25T08:28:15.732Z,30.50
2018-07-25T08:30:43.566Z,30.40
2018-07-25T08:33:11.463Z,30.50
2018-07-25T08:35:39.359Z,30.60
2018-07-25T08:38:07.189Z,30.60
2018-07-25T08:40:34.927Z,30.50
2018-07-25T08:43:02.659Z,30.30
2018-07-25T08:45:30.507Z,30.30
2018-07-25T08:47:59.411Z,30.50
2018-07-25T08:50:27.263Z,30.80
2018-07-25T08:52:55.055Z,31.20
2018-07-25T08:55:22.824Z,31.10
2018-07-25T08:57:50.790Z,31.00
2018-07-25T09:00:18.552Z,30.90
2018-07-25T09:02:46.387Z,30.90
2018-07-25T09:05:14.127Z,30.50
2018-07-25T09:07:41.979Z,30.80
2018-07-25T09:10:09.817Z,30.50
2018-07-25T09:15:05.795Z,30.90
2018-07-25T09:17:33.563Z,31.00
2018-07-25T09:20:01.320Z,31.00
2018-07-25T09:24:56.939Z,31.00
2018-07-25T09:27:24.695Z,31.10
2018-07-25T09:29:52.463Z,31.20
2018-07-25T09:32:20.235Z,31.10
2018-07-25T09:34:48.003Z,31.30
2018-07-25T09:37:15.776Z,31.30
2018-07-25T09:39:43.587Z,31.50
2018-07-25T09:42:11.381Z,31.70
2018-07-25T09:44:39.177Z,31.50
2018-07-25T09:47:07.208Z,31.60
2018-07-25T09:52:02.806Z,32.10
2018-07-25T09:54:30.569Z,31.90
2018-07-25T09:56:58.323Z,31.80
2018-07-25T09:59:26.178Z,32.10
2018-07-25T10:01:54.028Z,32.00
2018-07-25T10:04:21.828Z,32.20
2018-07-25T10:06:49.584Z,32.60
2018-07-25T10:09:17.407Z,33.70
2018-07-25T10:14:13.047Z,34.30
2018-07-25T10:16:40.878Z,34.40
2018-07-25T10:19:08.679Z,34.40
2018-07-25T10:21:36.418Z,34.50
2018-07-25T10:24:04.540Z,34.40
2018-07-25T10:26:32.332Z,34.30
2018-07-25T10:31:27.772Z,34.30
2018-07-25T10:33:55.584Z,34.10
2018-07-25T10:36:23.372Z,34.30
2018-07-25T10:38:51.107Z,34.30
2018-07-25T10:41:18.887Z,34.80
2018-07-25T10:43:46.739Z,35.60
2018-07-25T10:46:14.484Z,36.60
2018-07-25T10:48:42.293Z,36.90
2018-07-25T10:51:10.124Z,37.50
2018-07-25T10:53:37.895Z,38.90
2018-07-25T10:56:05.758Z,39.40
2018-07-25T10:58:33.555Z,39.50
2018-07-25T11:01:01.311Z,39.60
2018-07-25T11:03:29.808Z,40.00
2018-07-25T11:05:57.666Z,40.50
2018-07-25T11:08:25.511Z,41.20
2018-07-25T11:10:53.303Z,41.80
2018-07-25T11:15:48.891Z,41.90
2018-07-25T11:18:16.952Z,42.80
2018-07-25T11:20:44.777Z,41.90
2018-07-25T11:23:12.745Z,42.30
2018-07-25T11:25:40.503Z,42.20
2018-07-25T11:28:08.351Z,42.60
2018-07-25T11:30:36.109Z,43.40
2018-07-25T11:33:03.952Z,43.30
2018-07-25T11:35:31.770Z,42.90
2018-07-25T11:37:59.552Z,43.60
2018-07-25T11:40:27.380Z,43.70
2018-07-25T11:42:55.180Z,43.30
2018-07-25T11:45:23.105Z,43.70
2018-07-25T11:47:50.951Z,44.00
2018-07-25T11:50:18.830Z,44.60
2018-07-25T11:52:46.619Z,44.20
2018-07-25T11:57:42.166Z,43.80
2018-07-25T12:02:37.828Z,42.50
2018-07-25T12:05:05.903Z,41.90
2018-07-25T12:07:33.807Z,41.80
2018-07-25T12:10:01.691Z,41.90
2018-07-25T12:12:29.468Z,43.10
2018-07-25T12:14:57.254Z,43.20
2018-07-25T12:17:25.106Z,42.70
2018-07-25T12:19:52.966Z,43.60
2018-07-25T12:22:20.751Z,43.70
2018-07-25T12:24:48.594Z,44.20
2018-07-25T12:27:16.384Z,42.70
2018-07-25T12:29:44.103Z,42.00
2018-07-25T12:32:13.167Z,43.30
2018-07-25T12:37:08.644Z,43.30
2018-07-25T12:39:36.419Z,43.20
2018-07-25T12:42:04.238Z,43.90
2018-07-25T12:44:32.021Z,42.60
2018-07-25T12:46:59.840Z,43.80
2018-07-25T12:49:27.620Z,42.50
2018-07-25T12:51:55.515Z,42.30
2018-07-25T12:54:23.411Z,42.70
2018-07-25T12:56:51.245Z,42.40
2018-07-25T12:59:19.032Z,42.80
2018-07-25T13:01:46.819Z,43.00
2018-07-25T13:06:42.366Z,43.70
2018-07-25T13:09:11.247Z,43.40
2018-07-25T13:11:38.979Z,42.60
2018-07-25T13:14:06.992Z,41.90
2018-07-25T13:16:34.946Z,43.10
2018-07-25T13:19:02.947Z,43.10
2018-07-25T13:21:30.760Z,42.40
2018-07-25T13:23:58.656Z,42.20
2018-07-25T13:26:26.443Z,42.50
2018-07-25T13:28:54.207Z,43.50
2018-07-25T13:31:22.070Z,43.20
2018-07-25T13:33:49.883Z,43.10
2018-07-25T13:36:17.761Z,42.80
2018-07-25T13:38:45.577Z,42.70
2018-07-25T13:41:13.410Z,43.50
2018-07-25T13:43:41.139Z,43.10
2018-07-25T13:46:08.999Z,42.10
2018-07-25T13:48:36.775Z,42.40
2018-07-25T13:51:05.661Z,42.60
2018-07-25T13:53:35.932Z,42.20
2018-07-25T13:56:08.190Z,41.80
2018-07-25T13:58:36.038Z,40.00
2018-07-25T14:01:04.686Z,40.20
2018-07-25T14:03:32.483Z,39.30
2018-07-25T14:06:00.208Z,38.90
2018-07-25T14:08:28.220Z,38.10
2018-07-25T14:10:56.031Z,37.50
2018-07-25T14:13:23.871Z,37.80
2018-07-25T14:15:51.623Z,38.10
2018-07-25T14:18:19.451Z,38.10
2018-07-25T14:20:47.797Z,38.00
2018-07-25T14:23:15.875Z,37.80
2018-07-25T14:25:44.176Z,38.10
2018-07-25T14:28:12.396Z,38.40
2018-07-25T14:30:46.307Z,37.80
2018-07-25T14:33:15.652Z,37.60
2018-07-25T14:35:43.510Z,38.00
2018-07-25T14:38:16.433Z,37.80
2018-07-25T14:40:47.190Z,37.40
2018-07-25T14:43:18.122Z,37.60
2018-07-25T14:45:46.980Z,37.40
2018-07-25T14:48:14.893Z,37.30
2018-07-25T14:50:43.007Z,37.20
2018-07-25T14:53:10.905Z,37.10
2018-07-25T14:55:38.747Z,37.10
2018-07-25T14:58:06.824Z,36.70
2018-07-25T15:00:34.651Z,36.70
2018-07-25T15:03:02.510Z,36.20
2018-07-25T15:05:30.359Z,35.80
2018-07-25T15:07:58.155Z,35.80
2018-07-25T15:10:26.028Z,35.80
2018-07-25T15:15:28.656Z,35.60
2018-07-25T15:17:56.886Z,36.00
2018-07-25T15:20:32.440Z,35.80
2018-07-25T15:23:00.407Z,35.90
2018-07-25T15:27:56.148Z,35.70
2018-07-25T15:30:27.429Z,35.60
2018-07-25T15:32:55.323Z,35.80
2018-07-25T15:35:27.287Z,35.80
2018-07-25T15:38:05.017Z,36.00
2018-07-25T15:40:33.160Z,35.80
2018-07-25T15:43:12.228Z,36.00
2018-07-25T15:45:41.919Z,35.90
2018-07-25T15:48:09.847Z,35.80
2018-07-25T15:50:37.687Z,35.60
2018-07-25T15:53:05.428Z,35.70
2018-07-25T15:55:33.275Z,35.60
2018-07-25T15:58:01.027Z,35.70
2018-07-25T16:00:30.289Z,35.80
2018-07-25T16:02:58.139Z,35.80
2018-07-25T16:05:26.043Z,35.80
2018-07-25T16:07:53.779Z,35.90
2018-07-25T16:10:21.559Z,35.90
2018-07-25T16:12:49.367Z,36.00
2018-07-25T16:15:17.142Z,36.00
2018-07-25T16:17:44.895Z,36.30
2018-07-25T16:20:12.615Z,36.50
2018-07-25T16:22:40.460Z,36.50
2018-07-25T16:25:08.283Z,36.20
2018-07-25T16:27:36.091Z,36.30
2018-07-25T16:30:04.294Z,36.30
2018-07-25T16:32:32.133Z,36.10
2018-07-25T16:34:59.940Z,35.70
2018-07-25T16:37:27.719Z,35.50
2018-07-25T16:39:55.579Z,35.30
2018-07-25T16:42:23.391Z,35.10
2018-07-25T16:44:51.257Z,35.00
2018-07-25T16:47:19.079Z,34.80
2018-07-25T16:49:46.858Z,34.80
2018-07-25T16:52:14.707Z,34.60
2018-07-25T16:54:42.631Z,34.40
2018-07-25T16:57:10.468Z,34.10
2018-07-25T16:59:38.251Z,33.80
2018-07-25T17:02:06.092Z,33.80
2018-07-25T17:04:33.871Z,33.70
2018-07-25T17:07:01.683Z,33.50
2018-07-25T17:09:29.476Z,33.40
2018-07-25T17:11:57.212Z,33.20
2018-07-25T17:14:25.058Z,33.20
2018-07-25T17:16:52.827Z,33.10
2018-07-25T17:19:20.615Z,33.00
2018-07-25T17:21:48.411Z,32.90
2018-07-25T17:24:16.179Z,32.70
2018-07-25T17:26:43.970Z,32.70
2018-07-25T17:29:11.835Z,32.70
2018-07-25T17:31:39.667Z,32.60
2018-07-25T17:34:07.463Z,32.70
2018-07-25T17:36:35.296Z,32.80
2018-07-25T17:39:05.512Z,32.60
2018-07-25T17:41:33.365Z,32.50
2018-07-25T17:44:01.129Z,32.30
2018-07-25T17:46:28.871Z,32.20
2018-07-25T17:48:56.707Z,32.00
2018-07-25T17:51:24.499Z,31.90
2018-07-25T17:53:52.306Z,31.40
2018-07-25T17:56:20.147Z,31.40
2018-07-25T17:58:47.964Z,30.80
2018-07-25T18:01:15.808Z,30.60
2018-07-25T18:03:43.756Z,30.00
2018-07-25T18:06:11.604Z,29.80
2018-07-25T18:08:39.463Z,29.90
2018-07-25T18:13:40.603Z,29.80
2018-07-25T18:16:08.420Z,29.30
2018-07-25T18:18:36.255Z,28.90
2018-07-25T18:21:04.112Z,28.90
2018-07-25T18:23:32.020Z,28.80
2018-07-25T18:25:59.824Z,28.50
2018-07-25T18:28:27.591Z,28.60
2018-07-25T18:30:55.427Z,28.40
2018-07-25T18:33:23.246Z,28.50
2018-07-25T18:35:51.042Z,28.40
2018-07-25T18:38:19.035Z,28.50
2018-07-25T18:40:46.846Z,28.50
2018-07-25T18:43:14.671Z,28.40
2018-07-25T18:45:42.519Z,28.50
2018-07-25T18:48:10.286Z,28.40
2018-07-25T18:50:37.993Z,28.30
2018-07-25T18:53:06.018Z,28.20
2018-07-25T18:55:33.930Z,28.10
2018-07-25T18:58:01.747Z,28.20
2018-07-25T19:00:29.488Z,28.00
2018-07-25T19:02:57.309Z,27.90
2018-07-25T19:05:30.848Z,27.80
2018-07-25T19:07:59.847Z,27.70
2018-07-25T19:10:27.667Z,27.60
2018-07-25T19:12:55.802Z,27.70
2018-07-25T19:15:30.841Z,27.50
2018-07-25T19:17:59.231Z,27.40
2018-07-25T19:20:27.074Z,27.40
2018-07-25T19:22:54.802Z,27.20
2018-07-25T19:25:22.557Z,27.10
2018-07-25T19:27:50.691Z,27.00
2018-07-25T19:30:18.535Z,27.00
2018-07-25T19:32:46.307Z,26.90
2018-07-25T19:35:14.203Z,26.80
2018-07-25T19:37:42.271Z,26.70
2018-07-25T19:40:10.063Z,26.70
2018-07-25T19:42:37.887Z,26.70
2018-07-25T19:45:05.807Z,26.80
2018-07-25T19:50:01.460Z,26.70
2018-07-25T19:52:29.277Z,26.80
2018-07-25T19:54:57.055Z,26.70
2018-07-25T19:57:24.895Z,26.70
2018-07-25T19:59:52.683Z,26.60
2018-07-25T20:02:20.494Z,26.70
2018-07-25T20:07:16.123Z,26.60
2018-07-25T20:09:43.958Z,26.60
2018-07-25T20:12:11.704Z,26.50
2018-07-25T20:14:45.109Z,26.50
2018-07-25T20:17:13.628Z,26.40
2018-07-25T20:19:41.456Z,26.50
2018-07-25T20:22:09.270Z,26.40
2018-07-25T20:24:37.054Z,26.40
2018-07-25T20:27:04.991Z,26.40
2018-07-25T20:29:32.847Z,26.50
2018-07-25T20:32:00.586Z,26.50
2018-07-25T20:34:28.471Z,26.40
2018-07-25T20:36:56.295Z,26.40
2018-07-25T20:39:24.127Z,26.30
2018-07-25T20:41:51.963Z,26.40
2018-07-25T20:44:19.754Z,26.30
2018-07-25T20:46:47.507Z,26.40
2018-07-25T20:49:15.299Z,26.30
2018-07-25T20:51:43.089Z,26.40
2018-07-25T20:54:10.928Z,26.40
2018-07-25T20:56:38.735Z,26.30
2018-07-25T20:59:06.520Z,26.40
2018-07-25T21:01:34.351Z,26.40
2018-07-25T21:04:02.260Z,26.40
2018-07-25T21:06:30.024Z,26.40
2018-07-25T21:08:57.819Z,26.40
2018-07-25T21:11:25.624Z,26.30
2018-07-25T21:13:53.347Z,26.30
2018-07-25T21:16:21.107Z,26.30
2018-07-25T21:18:48.952Z,26.20
2018-07-25T21:21:16.796Z,26.20
2018-07-25T21:23:44.600Z,26.20
2018-07-25T21:26:12.379Z,26.20
2018-07-25T21:28:40.144Z,26.20
2018-07-25T21:31:07.976Z,26.10
2018-07-25T21:33:35.740Z,26.10
2018-07-25T21:36:03.540Z,26.00
2018-07-25T21:38:31.555Z,25.90
2018-07-25T21:40:59.359Z,25.80
2018-07-25T21:43:27.175Z,25.80
2018-07-25T21:45:54.973Z,25.80
2018-07-25T21:48:22.809Z,25.70
2018-07-25T21:50:50.753Z,25.60
2018-07-25T21:55:46.368Z,25.60
2018-07-25T21:58:14.131Z,25.50
2018-07-25T22:00:48.937Z,25.50
2018-07-25T22:03:17.015Z,25.50
2018-07-25T22:05:44.823Z,25.50
2018-07-25T22:08:12.611Z,25.40
2018-07-25T22:10:40.404Z,25.30
2018-07-25T22:13:08.336Z,25.30
2018-07-25T22:15:36.124Z,25.20
2018-07-25T22:18:04.119Z,25.10
2018-07-25T22:20:31.901Z,25.10
2018-07-25T22:22:59.687Z,25.00
2018-07-25T22:25:27.462Z,25.00
2018-07-25T22:27:55.324Z,24.90
2018-07-25T22:30:23.275Z,24.90
2018-07-25T22:32:51.123Z,24.80
2018-07-25T22:35:18.931Z,24.80
2018-07-25T22:37:46.947Z,24.70
2018-07-25T22:40:14.844Z,24.70
2018-07-25T22:42:42.639Z,24.60
2018-07-25T22:45:10.451Z,24.50
2018-07-25T22:47:38.311Z,24.40
2018-07-25T22:50:06.332Z,24.50
2018-07-25T22:52:34.136Z,24.40
2018-07-25T22:55:01.982Z,24.40
2018-07-25T22:57:29.779Z,24.20
2018-07-25T22:59:57.818Z,24.10
2018-07-25T23:02:27.372Z,24.20
2018-07-25T23:04:55.174Z,24.20
2018-07-25T23:09:50.748Z,24.10
2018-07-25T23:12:18.576Z,24.20
2018-07-25T23:14:46.320Z,24.20
2018-07-25T23:17:14.091Z,24.20
2018-07-25T23:19:41.944Z,24.20
2018-07-25T23:22:09.814Z,24.10
2018-07-25T23:24:37.779Z,24.10
2018-07-25T23:27:05.575Z,24.00
2018-07-25T23:29:36.314Z,23.90
2018-07-25T23:32:10.595Z,23.80
2018-07-25T23:34:38.395Z,23.70
2018-07-25T23:37:06.467Z,23.70
2018-07-25T23:39:34.339Z,23.80
2018-07-25T23:42:02.093Z,23.80
2018-07-25T23:44:29.863Z,23.70
2018-07-25T23:46:57.839Z,23.70
2018-07-25T23:49:25.667Z,23.60
2018-07-25T23:51:54.023Z,23.60
2018-07-25T23:54:21.940Z,23.60
2018-07-25T23:56:49.868Z,23.50
2018-07-25T23:59:17.703Z,23.50
